SBSPSBGO

Guest
Details From SBSP - Sao Paulo Congonhas
To SBGO - Santo Genoveva
Flight Number -
Tags Decoded
Created
Modified
Stats Distance 444 nm / 823 km
Max Altitude 0 ft / 0 m
Waypoints 2
Social Downloads 1
Likes 0
Share VATSIM

Download

Looking for another format? Having issues loading an existing format? Contact us
Advertisement - Login to hide

Notes

Decoded

Route

SBSP SBGO

ID Type Via Altitude Latitude Longitude Leg Dist Tot Dist Heading (true) Name
O SBSP APT - 0 ft / 0 m -23.62070˚ -46.65829˚ - 0 nm - -
O SBGO APT - 0 ft / 0 m -16.62634˚ -49.23081˚ 444 nm 444 nm 340° / 341° -

Altitude Profile

Advertisement - Login to hide

Weather


0- 5 10 15 20 25 30 35+ Temperature / ° C

Clouds and Precipitation
Forecast for 2017-12-13 18:00 UTC. Updated 19 minutes ago

Ground ~20,000 ft ~40,000 ft Winds

SBSP

Details ICAO SBSP (CGH)
Name Sao Paulo Congonhas
Region Brazil
Timezone America/Sao_Paulo (UTC-2.0)
Stats Elevation 2,631 ft / 802 m (AMSL)
Location -23.626693° -46.655377°
Runways 2
Magnetic Variation 21.294° W

METAR

SBSP 131700Z 15008KT 9999 BKN028 24/16 Q1020

Decode

TAF

TAF SBSP 130900Z 1312/1412 10005KT 9999 SCT015 TX27/1317Z TN16/1409Z BECMG 1313/1315 17008KT FEW045 BECMG 1316/1318 BKN040 BECMG 1321/1323 10004KT CAVOK BECMG 1400/1402 08005KT PROB30 1407/1411 3000 BR BKN005 RMK PGL

Decode

Departure Runways

ID Width Length Bearing (true) Bearing (mag) Surface Threshold Offset Overrun Length
17L 147 ft / 45 m 4,726 ft / 1,441 m 147.28° 168.57° Asphalt 0 ft / 0 m 220 ft / 67 m
17R 147 ft / 45 m 6,406 ft / 1,953 m 147.39° 168.68° Asphalt 413 ft / 126 m 0 ft / 0 m
35L 147 ft / 45 m 6,406 ft / 1,953 m 327.38° 348.67° Asphalt 200 ft / 61 m 0 ft / 0 m
35R 147 ft / 45 m 4,726 ft / 1,441 m 327.28° 348.57° Asphalt 0 ft / 0 m 0 ft / 0 m

SBGO

Details ICAO SBGO (GYN)
Name Santo Genoveva
Region Brazil
Timezone America/Sao_Paulo (UTC-2.0)
Stats Elevation 2,450 ft / 747 m (AMSL)
Location -16.632032° -49.220686°
Runways 1
Magnetic Variation 20.988° W

METAR

SBGO 131700Z 02010KT 9999 SCT035 FEW045TCU BKN080 27/18 Q1015

Decode

TAF

TAF SBGO 130800Z 1312/1412 31003KT 9999 SCT035 TX27/1318Z TN20/1409Z BECMG 1313/1315 30006KT BKN020 PROB40 1318/1322 34005KT RA SCT020 FEW035TCU BECMG 1322/1323 29005KT 12006KT FEW030 BECMG 1402/1404 34005KT 04005KT SCT030 BECMG 1408/1410 32003KT FEW035 RMK PEW

Decode

Destination Runways

ID Width Length Bearing (true) Bearing (mag) Surface Threshold Offset Overrun Length
14 148 ft / 45 m 8,208 ft / 2,502 m 120.42° 141.41° Asphalt 0 ft / 0 m 0 ft / 0 m
32 148 ft / 45 m 8,208 ft / 2,502 m 300.41° 321.40° Asphalt 980 ft / 299 m 0 ft / 0 m

Popular Alternatives